Карточка аэропорта UACC

Внимание!
Информация на этой странице в стадии наполнения.
Если вы не увидели какой-то информации, или заметили неточность - пожалуйста сообщите нам!
Спасибо!
Команда RU-STAFF
Название аэропортаАстана
Название аэропорта (англ.)Astana
Превышение1165 ft. (355.1 m.)
Координаты51°1.3319999999999', 71°28.014'
Высота перехода10000ft
Эшелон переходаFL120, QNH<733:FL130
Коды ответчика0601-0627, 7201-7217
Зона ОрВДАстана РПИ (UACN)
Данные METARUACC 121430Z 13005MPS CAVOK 25/13 Q1003 NOSIG RMK QFE721/0962
Проноз погоды (TAF)UACC 121100Z 1212/1312 12005MPS 9999 SCT040 TX30/1310Z TN17/1301Z TEMPO 1217/1305 FEW040CB BKN100 TEMPO 1305/1312 15005G10MPS SCT040CB BKN100 PROB40 TEMPO 1309/1312 -TSRA BKN040CB
NOTAMshow/hide NOTAM
AWOS   TABLE

Информация о ВПП

ВПП Длина ВПП (м.) Покрытие Курс ВПП Частота ILS
043500Асфальтобетон35109.5
223500Асфальтобетон215111.7

Диспетчерские позиции

Позывной Наименование органа УВД Частота
UACC_TWRАстана Вышка118.7
UACC_R_APPАстана Круг120.7
UACC_APPАстана Подход124.6
UACC_GNDАстана Руление119.6



Спутниковое изображение